CYRJ

Roberval Airport

Roberval, Quebec, Canada
METAR CYRJ 172100Z 19008KT 160V240 40SM OVC140 M05/M16 A3000 RMK AC8 PRESFR SLP174
Observed Flight Rules
Feb-17 @ 21:00 UTC (30 minutes ago) Visual Flight Rules
Wind Visibility Clouds
190° at 8 knots 40 miles
  • Overcast at 14,000' AGL
Temperatures Readings
Current -5°C / 23°F
Dewpoint -16°C / 3°F
Humidity 42%
Altimeter 30" Hg
Pressure 1017.4 hPa
Elevation 179
METAR CYRJ 172100Z 19008KT 160V240 40SM OVC140 M05/M16 A3000 RMK AC8 PRESFR SLP174
Observed Flight Rules
Feb-17 @ 21:00 UTC
(30 minutes ago)
VFR
Wind Visibility
190° at 8 knots 40 miles
Clouds
  • Overcast at 14,000' AGL
Temperature Dewpoint
-5°C / 23°F -16°C / 3°F
Humidity Altimeter Pressure
42% 30" Hg 1017.4 hPa